Holden, ME (04429)

1:21 AM EST on December 22, 2014 (GMT -0500)
Dole Hill | Change Station
CLOSE
Current Station
Personal Weather Station
Location: Holden, ME
Elevation: 463 ft
Nearby Weather Stations

Elev 463 ft 44.75 °N, 68.67 °W | Updated 56 seconds ago

Fog
Fog
26.0 °F
Feels Like 26 °F
N
2.0
Wind Variable Wind from West
Gusts 2.0 mph

Today
High -- | Low -- °F
--% Chance of Precip.
Yesterday
High -- | Low -- °F
Precip. -- in
7:09 AM 3:57 PM
New Moon, 0% visible
Pressure 30.41 in
Visibility 10.0 miles
Clouds Overcast 5500 ft
Windchill 26 °F
Dew Point 26 °F
Humidity 99%
Rainfall 0.00 in
Snow Depth Not available.
UV 0 out of 12
Pollen .10 out of 12
Air Quality Not available.
Flu Activity Not available.
METAR KBGR 220553Z 00000KT 10SM BCFG OVC055 M04/M05 A3040 RMK AO2 SLP296 4/002 I1000 I6000 T10391050 11022 21067 50002

More Conditions Fewer Conditions

Pressure 30.41 in
Visibility 10.0 miles
Clouds Overcast 5500 ft
Windchill 26 °F
Dew Point 26 °F
Humidity 99%
Rainfall 0.00 in
Snow Depth Not available.
UV 0 out of 12
Pollen .10 out of 12
Air Quality Not available.
Flu Activity Not available.
METAR KBGR 220553Z 00000KT 10SM BCFG OVC055 M04/M05 A3040 RMK AO2 SLP296 4/002 I1000 I6000 T10391050 11022 21067 50002

More Conditions Fewer Conditions

10-Day Weather Forecast

Almanac

Astronomy

Dec. 22, 2014 Rise Set
Actual Time
Civil Twilight
Nautical Twilight
Astronomical Twilight
Moon
Length of Visible Light
Length of Day
Tomorrow will be .
, % of the Moon is Illuminated

Today's Extremes

State Highs State Lows

Community

WunderPhotos

Upload Photos

1,779,557 photos uploaded!

WunderBlogs® & News

Nearby

Air Quality

  Air Quality AQ Index Pollutant
Not available.

Snow Depth

Station Depth Elevation

Earthquake Activity

City Distance Mag. Time & Date
Minimum magnitude displayed is 2.5.

Coastal Water Temperatures

Place Temperature

Nearby Weather Stations